createdAt,value
2022-12-18T00:01:41.528Z,-9.54
2022-12-18T00:03:49.741Z,-9.60
2022-12-18T00:05:57.754Z,-9.76
2022-12-18T00:08:09.043Z,-9.66
2022-12-18T00:10:20.004Z,-9.73
2022-12-18T00:12:30.727Z,-9.73
2022-12-18T00:14:38.797Z,-9.72
2022-12-18T00:16:50.929Z,-9.58
2022-12-18T00:19:03.768Z,-9.59
2022-12-18T00:21:13.977Z,-9.50
2022-12-18T00:23:22.125Z,-9.62
2022-12-18T00:25:30.538Z,-9.68
2022-12-18T00:27:41.322Z,-9.81
2022-12-18T00:29:49.440Z,-9.80
2022-12-18T00:31:57.297Z,-9.78
2022-12-18T00:34:06.369Z,-9.85
2022-12-18T00:36:16.193Z,-9.95
2022-12-18T00:38:24.699Z,-9.90
2022-12-18T00:40:36.385Z,-9.67
2022-12-18T00:42:59.456Z,-9.83
2022-12-18T00:45:12.540Z,-9.76
2022-12-18T00:47:21.464Z,-9.68
2022-12-18T00:49:29.462Z,-9.64
2022-12-18T00:51:37.678Z,-9.36
2022-12-18T00:53:45.626Z,-9.56
2022-12-18T00:55:53.595Z,-9.48
2022-12-18T00:58:04.267Z,-9.75
2022-12-18T01:00:15.017Z,-9.74
2022-12-18T01:02:23.420Z,-9.87
2022-12-18T01:04:31.570Z,-9.85
2022-12-18T01:06:39.827Z,-9.72
2022-12-18T01:08:48.551Z,-9.52
2022-12-18T01:10:56.651Z,-9.42
2022-12-18T01:13:07.638Z,-9.61
2022-12-18T01:15:17.996Z,-9.56
2022-12-18T01:17:26.074Z,-9.67
2022-12-18T01:19:35.042Z,-9.61
2022-12-18T01:21:43.039Z,-9.64
2022-12-18T01:23:55.004Z,-9.80
2022-12-18T01:26:09.565Z,-9.65
2022-12-18T01:28:20.213Z,-9.81
2022-12-18T01:30:28.003Z,-9.87
2022-12-18T01:32:36.119Z,-9.81
2022-12-18T01:34:44.056Z,-9.77
2022-12-18T01:36:53.267Z,-9.75
2022-12-18T01:39:03.186Z,-9.67
2022-12-18T01:41:12.616Z,-9.69
2022-12-18T01:43:23.179Z,-9.68
2022-12-18T01:45:32.289Z,-9.62
2022-12-18T01:47:43.486Z,-9.56
2022-12-18T01:49:54.911Z,-9.52
2022-12-18T01:52:02.867Z,-9.48
2022-12-18T01:54:10.891Z,-9.58
2022-12-18T01:56:20.324Z,-9.36
2022-12-18T01:58:36.641Z,-9.45
2022-12-18T02:00:45.109Z,-9.40
2022-12-18T02:02:55.884Z,-9.38
2022-12-18T02:05:04.963Z,-9.52
2022-12-18T02:07:20.093Z,-9.55
2022-12-18T02:09:52.122Z,-9.66
2022-12-18T02:12:09.563Z,-9.79
2022-12-18T02:14:48.257Z,-9.89
2022-12-18T02:17:03.728Z,-10.01
2022-12-18T02:19:30.815Z,-10.01
2022-12-18T02:21:51.307Z,-9.94
2022-12-18T02:24:15.993Z,-10.15
2022-12-18T02:26:34.649Z,-10.23
2022-12-18T02:28:46.520Z,-10.16
2022-12-18T02:30:58.580Z,-10.28
2022-12-18T02:33:10.405Z,-10.32
2022-12-18T02:35:26.027Z,-10.38
2022-12-18T02:37:38.457Z,-10.49
2022-12-18T02:39:50.483Z,-10.54
2022-12-18T02:42:03.440Z,-10.46
2022-12-18T02:44:14.410Z,-10.48
2022-12-18T02:46:32.681Z,-10.37
2022-12-18T02:48:44.338Z,-10.39
2022-12-18T02:51:03.584Z,-10.56
2022-12-18T02:53:21.079Z,-10.63
2022-12-18T02:55:45.934Z,-10.61
2022-12-18T02:58:07.262Z,-10.64
2022-12-18T03:00:23.620Z,-10.71
2022-12-18T03:02:39.976Z,-10.81
2022-12-18T03:04:55.167Z,-10.82
2022-12-18T03:07:09.556Z,-10.79
2022-12-18T03:09:21.907Z,-10.76
2022-12-18T03:11:45.636Z,-10.74
2022-12-18T03:14:01.091Z,-10.79
2022-12-18T03:16:12.135Z,-10.96
2022-12-18T03:18:24.465Z,-10.95
2022-12-18T03:20:36.728Z,-10.84
2022-12-18T03:22:48.994Z,-10.85
2022-12-18T03:25:00.445Z,-10.79
2022-12-18T03:27:13.065Z,-10.81
2022-12-18T03:29:31.899Z,-10.76
2022-12-18T03:31:44.788Z,-10.83
2022-12-18T03:33:58.928Z,-10.98
2022-12-18T03:36:15.470Z,-11.01
2022-12-18T03:38:23.633Z,-10.98
2022-12-18T03:40:43.581Z,-10.99
2022-12-18T03:42:56.080Z,-11.01
2022-12-18T03:45:15.393Z,-11.03
2022-12-18T03:47:31.735Z,-11.09
2022-12-18T03:49:50.899Z,-11.03
2022-12-18T03:52:07.404Z,-11.16
2022-12-18T03:54:16.989Z,-11.02
2022-12-18T03:56:36.594Z,-11.09
2022-12-18T03:58:56.028Z,-11.04
2022-12-18T04:01:16.100Z,-11.06
2022-12-18T04:03:26.992Z,-11.06
2022-12-18T04:05:38.682Z,-10.90
2022-12-18T04:07:51.080Z,-10.97
2022-12-18T04:10:03.578Z,-11.01
2022-12-18T04:12:13.217Z,-11.00
2022-12-18T04:14:22.113Z,-10.99
2022-12-18T04:16:37.347Z,-10.92
2022-12-18T04:18:47.492Z,-10.99
2022-12-18T04:20:56.353Z,-11.11
2022-12-18T04:23:04.548Z,-11.13
2022-12-18T04:25:15.961Z,-11.21
2022-12-18T04:27:36.154Z,-11.21
2022-12-18T04:29:46.374Z,-11.24
2022-12-18T04:31:56.860Z,-11.26
2022-12-18T04:34:07.330Z,-11.29
2022-12-18T04:36:29.862Z,-11.43
2022-12-18T04:38:37.694Z,-11.44
2022-12-18T04:40:53.132Z,-11.55
2022-12-18T04:43:07.429Z,-11.62
2022-12-18T04:45:15.432Z,-11.85
2022-12-18T04:47:25.995Z,-11.77
2022-12-18T04:49:33.960Z,-11.61
2022-12-18T04:51:41.769Z,-11.67
2022-12-18T04:53:49.690Z,-11.78
2022-12-18T04:56:06.897Z,-11.75
2022-12-18T04:58:14.787Z,-11.72
2022-12-18T05:00:23.066Z,-11.77
2022-12-18T05:02:33.748Z,-11.69
2022-12-18T05:04:41.757Z,-11.73
2022-12-18T05:06:49.724Z,-11.80
2022-12-18T05:08:57.764Z,-11.71
2022-12-18T05:11:08.716Z,-11.85
2022-12-18T05:13:16.607Z,-11.91
2022-12-18T05:15:24.623Z,-11.87
2022-12-18T05:17:35.173Z,-12.05
2022-12-18T05:19:43.107Z,-12.08
2022-12-18T05:21:53.742Z,-12.15
2022-12-18T05:24:01.888Z,-12.14
2022-12-18T05:26:10.752Z,-12.15
2022-12-18T05:28:18.811Z,-12.03
2022-12-18T05:30:26.759Z,-12.08
2022-12-18T05:32:37.290Z,-12.05
2022-12-18T05:34:45.424Z,-12.17
2022-12-18T05:36:53.652Z,-12.18
2022-12-18T05:39:01.620Z,-12.27
2022-12-18T05:41:11.198Z,-12.26
2022-12-18T05:43:45.089Z,-12.21
2022-12-18T05:45:53.999Z,-12.10
2022-12-18T05:48:06.314Z,-12.16
2022-12-18T05:50:14.293Z,-12.12
2022-12-18T05:52:22.117Z,-11.93
2022-12-18T05:54:32.139Z,-11.73
2022-12-18T05:56:44.144Z,-11.82
2022-12-18T05:58:55.754Z,-11.72
2022-12-18T06:01:12.517Z,-11.80
2022-12-18T06:03:23.345Z,-11.97
2022-12-18T06:05:31.807Z,-12.15
2022-12-18T06:07:39.709Z,-12.36
2022-12-18T06:09:48.034Z,-12.43
2022-12-18T06:11:56.550Z,-12.50
2022-12-18T06:14:04.602Z,-12.41
2022-12-18T06:16:15.285Z,-12.48
2022-12-18T06:18:26.143Z,-12.45
2022-12-18T06:20:34.219Z,-12.42
2022-12-18T06:22:45.147Z,-12.52
2022-12-18T06:24:53.332Z,-12.51
2022-12-18T06:27:01.164Z,-12.40
2022-12-18T06:29:09.244Z,-12.51
2022-12-18T06:31:17.411Z,-12.49
2022-12-18T06:33:30.865Z,-12.44
2022-12-18T06:35:38.816Z,-12.45
2022-12-18T06:37:46.953Z,-12.33
2022-12-18T06:39:54.899Z,-12.18
2022-12-18T06:42:02.682Z,-12.02
2022-12-18T06:44:10.576Z,-12.07
2022-12-18T06:46:19.447Z,-11.98
2022-12-18T06:48:30.077Z,-11.98
2022-12-18T06:50:38.348Z,-12.07
2022-12-18T06:52:51.856Z,-12.22
2022-12-18T06:54:59.683Z,-12.38
2022-12-18T06:57:07.626Z,-12.49
2022-12-18T06:59:16.682Z,-12.56
2022-12-18T07:01:25.267Z,-12.59
2022-12-18T07:03:36.160Z,-12.51
2022-12-18T07:05:44.696Z,-12.34
2022-12-18T07:07:52.480Z,-12.26
2022-12-18T07:10:00.727Z,-12.05
2022-12-18T07:12:10.092Z,-11.92
2022-12-18T07:14:17.967Z,-12.14
2022-12-18T07:16:26.405Z,-12.25
2022-12-18T07:18:37.100Z,-12.39
2022-12-18T07:20:46.912Z,-12.35
2022-12-18T07:22:56.436Z,-12.48
2022-12-18T07:25:04.374Z,-12.28
2022-12-18T07:27:12.270Z,-12.03
2022-12-18T07:29:20.935Z,-11.94
2022-12-18T07:31:29.966Z,-11.96
2022-12-18T07:33:40.885Z,-12.30
2022-12-18T07:35:49.214Z,-12.16
2022-12-18T07:37:57.133Z,-12.04
2022-12-18T07:40:14.370Z,-12.08
2022-12-18T07:42:34.761Z,-11.83
2022-12-18T07:44:42.625Z,-11.64
2022-12-18T07:46:50.427Z,-11.69
2022-12-18T07:49:00.781Z,-11.78
2022-12-18T07:51:12.779Z,-11.58
2022-12-18T07:53:20.673Z,-11.48
2022-12-18T07:55:28.511Z,-11.31
2022-12-18T07:57:57.624Z,-11.25
2022-12-18T08:00:05.757Z,-11.27
2022-12-18T08:02:20.270Z,-11.06
2022-12-18T08:04:38.565Z,-11.04
2022-12-18T08:06:48.256Z,-10.96
2022-12-18T08:08:57.303Z,-11.19
2022-12-18T08:11:05.544Z,-11.30
2022-12-18T08:13:13.625Z,-11.46
2022-12-18T08:15:27.261Z,-11.71
2022-12-18T08:17:35.391Z,-11.61
2022-12-18T08:19:46.627Z,-11.48
2022-12-18T08:21:54.971Z,-11.50
2022-12-18T08:24:04.871Z,-11.46
2022-12-18T08:26:13.985Z,-11.51
2022-12-18T08:28:22.002Z,-11.45
2022-12-18T08:30:29.841Z,-11.39
2022-12-18T08:32:38.553Z,-11.27
2022-12-18T08:34:49.981Z,-11.11
2022-12-18T08:36:58.051Z,-11.08
2022-12-18T08:39:06.766Z,-10.80
2022-12-18T08:41:16.921Z,-10.77
2022-12-18T08:43:37.781Z,-10.59
2022-12-18T08:45:46.348Z,-10.51
2022-12-18T08:47:54.580Z,-10.62
2022-12-18T08:50:05.986Z,-10.73
2022-12-18T08:52:16.865Z,-10.53
2022-12-18T08:54:26.385Z,-10.58
2022-12-18T08:56:35.881Z,-10.33
2022-12-18T08:58:44.937Z,-10.21
2022-12-18T09:00:52.746Z,-10.18
2022-12-18T09:03:00.812Z,-9.96
2022-12-18T09:05:11.754Z,-9.93
2022-12-18T09:07:19.877Z,-9.90
2022-12-18T09:09:28.068Z,-10.01
2022-12-18T09:11:37.486Z,-10.03
2022-12-18T09:13:45.347Z,-9.85
2022-12-18T09:15:55.564Z,-9.67
2022-12-18T09:18:03.802Z,-9.64
2022-12-18T09:20:15.127Z,-9.42
2022-12-18T09:22:22.979Z,-9.30
2022-12-18T09:25:03.065Z,-8.85
2022-12-18T09:27:11.471Z,-8.09
2022-12-18T09:29:21.693Z,-7.07
2022-12-18T09:31:29.769Z,-6.79
2022-12-18T09:33:38.099Z,-6.91
2022-12-18T09:35:49.797Z,-6.09
2022-12-18T09:37:57.555Z,-5.04
2022-12-18T09:40:07.857Z,-4.99
2022-12-18T09:42:23.807Z,-4.56
2022-12-18T09:44:37.752Z,-4.26
2022-12-18T09:46:54.686Z,-3.91
2022-12-18T09:49:06.076Z,-2.88
2022-12-18T09:51:20.636Z,-3.74
2022-12-18T09:53:32.139Z,-3.20
2022-12-18T09:55:44.100Z,-2.99
2022-12-18T09:57:57.410Z,-3.39
2022-12-18T10:00:13.179Z,-4.58
2022-12-18T10:02:25.922Z,-6.03
2022-12-18T10:04:37.696Z,-6.65
2022-12-18T10:06:54.184Z,-6.99
2022-12-18T10:09:07.951Z,-7.01
2022-12-18T10:11:44.843Z,-7.19
2022-12-18T10:14:00.400Z,-7.48
2022-12-18T10:16:17.254Z,-7.54
2022-12-18T10:18:39.793Z,-7.31
2022-12-18T10:20:52.576Z,-7.25
2022-12-18T10:23:14.138Z,-7.21
2022-12-18T10:25:27.859Z,-7.48
2022-12-18T10:27:36.006Z,-7.37
2022-12-18T10:29:44.928Z,-7.39
2022-12-18T10:31:52.996Z,-7.08
2022-12-18T10:34:01.048Z,-6.87
2022-12-18T10:36:11.840Z,-6.78
2022-12-18T10:38:31.296Z,-6.78
2022-12-18T10:40:54.233Z,-6.71
2022-12-18T10:43:14.451Z,-6.55
2022-12-18T10:45:22.394Z,-6.68
2022-12-18T10:47:30.525Z,-6.63
2022-12-18T10:49:39.334Z,-6.37
2022-12-18T10:51:47.400Z,-6.24
2022-12-18T10:54:03.248Z,-6.20
2022-12-18T10:56:15.639Z,-6.10
2022-12-18T10:58:30.101Z,-5.91
2022-12-18T11:00:38.400Z,-6.03
2022-12-18T11:02:46.459Z,-5.69
2022-12-18T11:04:56.052Z,-5.62
2022-12-18T11:07:05.894Z,-5.73
2022-12-18T11:09:24.835Z,-5.50
2022-12-18T11:11:33.949Z,-5.65
2022-12-18T11:13:42.282Z,-5.48
2022-12-18T11:15:50.932Z,-5.44
2022-12-18T11:18:00.528Z,-5.46
2022-12-18T11:20:23.650Z,-5.24
2022-12-18T11:22:33.291Z,-5.18
2022-12-18T11:24:49.900Z,-5.03
2022-12-18T11:27:10.724Z,-5.04
2022-12-18T11:29:22.406Z,-5.01
2022-12-18T11:31:32.897Z,-5.06
2022-12-18T11:33:58.372Z,-4.81
2022-12-18T11:36:13.524Z,-4.88
2022-12-18T11:38:30.077Z,-4.95
2022-12-18T11:40:44.326Z,-5.03
2022-12-18T11:43:02.141Z,-4.99
2022-12-18T11:45:31.731Z,-4.87
2022-12-18T11:47:47.995Z,-4.65
2022-12-18T11:49:56.686Z,-4.53
2022-12-18T11:52:10.992Z,-4.48
2022-12-18T11:54:20.150Z,-4.43
2022-12-18T11:56:48.090Z,-4.40
2022-12-18T11:59:06.438Z,-4.15
2022-12-18T12:01:22.579Z,-3.93
2022-12-18T12:03:50.987Z,-4.09
2022-12-18T12:06:15.685Z,-3.88
2022-12-18T12:08:35.178Z,-3.88
2022-12-18T12:10:56.450Z,-3.57
2022-12-18T12:13:23.316Z,-3.59
2022-12-18T12:15:43.780Z,-3.58
2022-12-18T12:17:58.358Z,-3.46
2022-12-18T12:20:15.371Z,-3.68
2022-12-18T12:22:31.731Z,-3.51
2022-12-18T12:24:55.606Z,-3.42
2022-12-18T12:27:13.654Z,-3.38
2022-12-18T12:29:37.944Z,-3.38
2022-12-18T12:32:02.433Z,-3.28
2022-12-18T12:34:19.761Z,-3.33
2022-12-18T12:36:40.465Z,-3.30
2022-12-18T12:38:57.859Z,-3.13
2022-12-18T12:41:30.469Z,-3.02
2022-12-18T12:43:49.495Z,-2.96
2022-12-18T12:46:07.593Z,-2.84
2022-12-18T12:48:25.490Z,-2.79
2022-12-18T12:50:38.134Z,-2.80
2022-12-18T12:52:49.832Z,-2.72
2022-12-18T12:54:58.607Z,-2.46
2022-12-18T12:57:13.068Z,-2.51
2022-12-18T12:59:36.589Z,-2.55
2022-12-18T13:01:59.177Z,-2.59
2022-12-18T13:04:19.452Z,-2.57
2022-12-18T13:06:44.549Z,-2.44
2022-12-18T13:08:59.048Z,-2.27
2022-12-18T13:11:19.807Z,-2.31
2022-12-18T13:13:28.195Z,-2.42
2022-12-18T13:15:42.066Z,-2.42
2022-12-18T13:17:53.072Z,-2.47
2022-12-18T13:20:10.994Z,-2.42
2022-12-18T13:22:29.864Z,-2.37
2022-12-18T13:24:38.038Z,-2.47
2022-12-18T13:26:46.175Z,-2.28
2022-12-18T13:28:56.891Z,-2.27
2022-12-18T13:31:06.147Z,-2.20
2022-12-18T13:36:31.421Z,-2.08
2022-12-18T13:38:40.845Z,-2.02
2022-12-18T13:41:00.226Z,-2.38
2022-12-18T13:43:24.945Z,-2.42
2022-12-18T13:45:49.345Z,-2.48
2022-12-18T13:47:57.743Z,-2.27
2022-12-18T13:50:19.612Z,-2.27
2022-12-18T13:52:31.714Z,-2.33
2022-12-18T13:54:41.327Z,-2.63
2022-12-18T13:56:53.251Z,-2.56
2022-12-18T13:59:17.248Z,-2.43
2022-12-18T14:01:29.931Z,-2.51
2022-12-18T14:03:37.997Z,-2.51
2022-12-18T14:05:49.797Z,-2.31
2022-12-18T14:08:02.761Z,-2.48
2022-12-18T14:10:42.249Z,-2.42
2022-12-18T14:13:03.281Z,-2.56
2022-12-18T14:15:25.975Z,-2.64
2022-12-18T14:17:35.754Z,-2.60
2022-12-18T14:19:49.285Z,-2.73
2022-12-18T14:21:59.955Z,-2.78
2022-12-18T14:24:19.506Z,-2.88
2022-12-18T14:26:30.604Z,-3.11
2022-12-18T14:28:49.698Z,-3.26
2022-12-18T14:31:01.242Z,-3.26
2022-12-18T14:33:16.243Z,-3.17
2022-12-18T14:35:25.468Z,-3.28
2022-12-18T14:37:37.844Z,-3.44
2022-12-18T14:39:57.692Z,-3.72
2022-12-18T14:42:06.204Z,-3.78
2022-12-18T14:44:16.461Z,-3.81
2022-12-18T14:46:38.820Z,-3.75
2022-12-18T14:48:51.386Z,-3.82
2022-12-18T14:51:02.588Z,-3.92
2022-12-18T14:53:24.852Z,-3.99
2022-12-18T14:55:33.554Z,-3.97
2022-12-18T14:57:44.483Z,-4.11
2022-12-18T14:59:53.119Z,-4.16
2022-12-18T15:02:09.035Z,-4.30
2022-12-18T15:04:30.052Z,-4.33
2022-12-18T15:06:41.010Z,-4.41
2022-12-18T15:08:51.770Z,-4.41
2022-12-18T15:11:00.440Z,-4.56
2022-12-18T15:13:12.966Z,-4.65
2022-12-18T15:15:51.552Z,-4.61
2022-12-18T15:18:09.435Z,-4.68
2022-12-18T15:20:17.574Z,-4.74
2022-12-18T15:22:31.544Z,-4.81
2022-12-18T15:24:44.457Z,-4.81
2022-12-18T15:26:54.827Z,-4.93
2022-12-18T15:29:04.433Z,-4.93
2022-12-18T15:31:29.812Z,-4.96
2022-12-18T15:33:41.480Z,-4.78
2022-12-18T15:35:49.568Z,-4.87
2022-12-18T15:37:59.034Z,-4.99
2022-12-18T15:40:18.884Z,-5.07
2022-12-18T15:42:40.611Z,-4.96
2022-12-18T15:44:51.966Z,-5.07
2022-12-18T15:47:04.481Z,-5.05
2022-12-18T15:49:12.298Z,-5.01
2022-12-18T15:51:23.996Z,-5.16
2022-12-18T15:53:36.097Z,-5.17
2022-12-18T15:56:10.658Z,-5.14
2022-12-18T15:58:18.732Z,-5.21
2022-12-18T16:00:27.175Z,-5.15
2022-12-18T16:02:36.082Z,-5.21
2022-12-18T16:04:50.101Z,-5.22
2022-12-18T16:07:18.125Z,-5.29
2022-12-18T16:09:29.732Z,-5.37
2022-12-18T16:11:43.246Z,-5.23
2022-12-18T16:13:51.554Z,-5.21
2022-12-18T16:15:59.587Z,-5.17
2022-12-18T16:18:08.066Z,-5.23
2022-12-18T16:20:17.914Z,-5.11
2022-12-18T16:22:28.089Z,-5.12
2022-12-18T16:24:37.758Z,-5.06
2022-12-18T16:26:50.061Z,-5.13
2022-12-18T16:28:58.239Z,-5.08
2022-12-18T16:31:06.074Z,-5.10
2022-12-18T16:33:14.480Z,-5.10
2022-12-18T16:35:30.632Z,-5.12
2022-12-18T16:37:41.009Z,-5.13
2022-12-18T16:39:49.056Z,-5.12
2022-12-18T16:42:00.023Z,-5.14
2022-12-18T16:44:09.688Z,-5.06
2022-12-18T16:46:17.675Z,-5.11
2022-12-18T16:48:28.548Z,-5.15
2022-12-18T16:50:41.180Z,-5.09
2022-12-18T16:52:49.529Z,-5.15
2022-12-18T16:54:58.665Z,-5.01
2022-12-18T16:57:11.632Z,-5.00
2022-12-18T16:59:19.826Z,-5.04
2022-12-18T17:01:30.732Z,-4.94
2022-12-18T17:03:39.121Z,-4.98
2022-12-18T17:05:53.079Z,-4.90
2022-12-18T17:08:02.412Z,-5.01
2022-12-18T17:10:10.987Z,-4.96
2022-12-18T17:12:25.155Z,-5.00
2022-12-18T17:14:33.026Z,-5.06
2022-12-18T17:16:40.791Z,-5.12
2022-12-18T17:18:48.756Z,-4.99
2022-12-18T17:20:56.655Z,-4.97
2022-12-18T17:23:04.555Z,-4.96
2022-12-18T17:25:15.537Z,-4.92
2022-12-18T17:27:25.968Z,-4.96
2022-12-18T17:29:34.335Z,-4.95
2022-12-18T17:31:43.910Z,-5.03
2022-12-18T17:33:52.644Z,-5.00
2022-12-18T17:36:03.584Z,-4.96
2022-12-18T17:38:12.155Z,-4.96
2022-12-18T17:40:20.355Z,-5.04
2022-12-18T17:42:31.121Z,-4.88
2022-12-18T17:44:39.414Z,-5.00
2022-12-18T17:46:48.137Z,-5.06
2022-12-18T17:48:58.709Z,-5.01
2022-12-18T17:51:08.901Z,-5.03
2022-12-18T17:53:16.928Z,-5.02
2022-12-18T17:55:25.926Z,-4.98
2022-12-18T17:57:38.623Z,-5.04
2022-12-18T17:59:46.697Z,-5.09
2022-12-18T18:01:54.977Z,-5.12
2022-12-18T18:04:04.616Z,-5.05
2022-12-18T18:06:13.117Z,-5.09
2022-12-18T18:08:21.378Z,-4.95
2022-12-18T18:10:29.242Z,-4.99
2022-12-18T18:12:54.217Z,-5.01
2022-12-18T18:15:02.325Z,-4.99
2022-12-18T18:17:10.251Z,-4.92
2022-12-18T18:19:20.599Z,-4.91
2022-12-18T18:21:31.744Z,-4.96
2022-12-18T18:23:40.894Z,-5.01
2022-12-18T18:25:57.724Z,-5.00
2022-12-18T18:28:09.006Z,-5.01
2022-12-18T18:30:17.550Z,-5.07
2022-12-18T18:32:27.680Z,-4.91
2022-12-18T18:34:36.922Z,-4.83
2022-12-18T18:36:45.577Z,-4.83
2022-12-18T18:38:53.939Z,-4.76
2022-12-18T18:41:03.091Z,-4.88
2022-12-18T18:43:13.830Z,-4.77
2022-12-18T18:45:22.125Z,-4.90
2022-12-18T18:47:32.611Z,-4.90
2022-12-18T18:49:44.354Z,-4.95
2022-12-18T18:51:53.606Z,-4.90
2022-12-18T18:54:02.727Z,-4.81
2022-12-18T18:58:42.903Z,-4.79
2022-12-18T19:00:58.005Z,-4.86
2022-12-18T19:03:06.943Z,-4.82
2022-12-18T19:05:15.008Z,-4.89
2022-12-18T19:07:30.755Z,-4.93
2022-12-18T19:09:39.111Z,-4.94
2022-12-18T19:11:59.398Z,-4.83
2022-12-18T19:14:13.028Z,-4.87
2022-12-18T19:16:21.402Z,-4.79
2022-12-18T19:18:31.852Z,-4.77
2022-12-18T19:20:42.656Z,-4.73
2022-12-18T19:22:55.991Z,-4.77
2022-12-18T19:25:04.282Z,-4.88
2022-12-18T19:27:12.696Z,-4.76
2022-12-18T19:29:27.548Z,-4.74
2022-12-18T19:31:37.333Z,-4.83
2022-12-18T19:33:49.613Z,-4.73
2022-12-18T19:36:01.191Z,-4.79
2022-12-18T19:38:13.496Z,-4.92
2022-12-18T19:40:22.641Z,-4.77
2022-12-18T19:42:35.354Z,-4.89
2022-12-18T19:44:46.186Z,-4.95
2022-12-18T19:46:59.742Z,-4.96
2022-12-18T19:49:17.370Z,-5.07
2022-12-18T19:51:29.866Z,-5.09
2022-12-18T19:53:39.204Z,-5.14
2022-12-18T19:55:47.351Z,-5.10
2022-12-18T19:57:57.259Z,-5.18
2022-12-18T20:00:15.431Z,-5.07
2022-12-18T20:02:26.448Z,-5.06
2022-12-18T20:04:35.488Z,-5.07
2022-12-18T20:06:51.094Z,-5.10
2022-12-18T20:09:01.779Z,-5.05
2022-12-18T20:11:10.680Z,-5.00
2022-12-18T20:13:18.956Z,-5.04
2022-12-18T20:15:29.495Z,-5.06
2022-12-18T20:17:41.680Z,-4.95
2022-12-18T20:19:53.374Z,-4.94
2022-12-18T20:22:03.800Z,-5.03
2022-12-18T20:24:12.480Z,-5.07
2022-12-18T20:26:20.731Z,-5.04
2022-12-18T20:28:29.320Z,-5.05
2022-12-18T20:30:40.182Z,-5.05
2022-12-18T20:32:48.381Z,-5.09
2022-12-18T20:34:56.279Z,-5.08
2022-12-18T20:37:04.835Z,-5.11
2022-12-18T20:39:13.542Z,-5.16
2022-12-18T20:41:24.679Z,-5.17
2022-12-18T20:43:33.222Z,-5.16
2022-12-18T20:45:43.949Z,-5.17
2022-12-18T20:47:59.740Z,-5.13
2022-12-18T20:50:09.416Z,-5.10
2022-12-18T20:52:17.609Z,-5.12
2022-12-18T20:54:30.080Z,-5.11
2022-12-18T20:56:38.632Z,-5.07
2022-12-18T20:58:47.401Z,-4.95
2022-12-18T21:01:11.439Z,-4.83
2022-12-18T21:03:20.591Z,-4.74
2022-12-18T21:05:29.487Z,-4.80
2022-12-18T21:07:37.570Z,-4.74
2022-12-18T21:09:45.515Z,-4.70
2022-12-18T21:12:05.924Z,-4.64
2022-12-18T21:14:17.543Z,-4.64
2022-12-18T21:16:28.589Z,-4.57
2022-12-18T21:18:36.870Z,-4.60
2022-12-18T21:20:45.284Z,-4.28
2022-12-18T21:22:54.007Z,-4.22
2022-12-18T21:25:05.325Z,-4.17
2022-12-18T21:27:13.124Z,-4.27
2022-12-18T21:29:27.516Z,-4.25
2022-12-18T21:31:39.412Z,-4.31
2022-12-18T21:33:47.279Z,-4.26
2022-12-18T21:35:56.290Z,-4.41
2022-12-18T21:38:05.813Z,-4.38
2022-12-18T21:40:15.138Z,-4.32
2022-12-18T21:42:35.350Z,-4.42
2022-12-18T21:44:43.866Z,-4.43
2022-12-18T21:47:01.555Z,-4.29
2022-12-18T21:49:15.022Z,-4.18
2022-12-18T21:51:22.969Z,-4.34
2022-12-18T21:53:30.817Z,-4.31
2022-12-18T21:55:38.567Z,-4.25
2022-12-18T21:57:46.378Z,-4.18
2022-12-18T21:59:54.423Z,-4.26
2022-12-18T22:02:07.316Z,-4.22
2022-12-18T22:04:15.930Z,-4.31
2022-12-18T22:06:23.760Z,-4.30
2022-12-18T22:08:31.619Z,-4.27
2022-12-18T22:10:40.253Z,-4.26
2022-12-18T22:12:48.935Z,-4.28
2022-12-18T22:14:56.797Z,-4.30
2022-12-18T22:17:07.260Z,-4.22
2022-12-18T22:19:16.631Z,-4.21
2022-12-18T22:21:29.502Z,-4.23
2022-12-18T22:23:37.862Z,-4.18
2022-12-18T22:25:45.835Z,-4.23
2022-12-18T22:28:05.883Z,-4.32
2022-12-18T22:30:15.674Z,-4.29
2022-12-18T22:32:31.361Z,-4.37
2022-12-18T22:34:39.642Z,-4.27
2022-12-18T22:36:49.464Z,-4.29
2022-12-18T22:38:57.458Z,-4.22
2022-12-18T22:41:05.624Z,-4.09
2022-12-18T22:43:14.095Z,-4.14
2022-12-18T22:45:30.039Z,-4.21
2022-12-18T22:47:40.882Z,-4.33
2022-12-18T22:49:48.998Z,-4.33
2022-12-18T22:51:57.539Z,-4.23
2022-12-18T22:54:19.594Z,-4.29
2022-12-18T22:56:33.772Z,-4.32
2022-12-18T22:58:42.211Z,-4.32
2022-12-18T23:00:50.462Z,-4.39
2022-12-18T23:03:01.383Z,-4.34
2022-12-18T23:05:09.955Z,-4.22
2022-12-18T23:07:18.567Z,-4.29
2022-12-18T23:09:26.518Z,-4.32
2022-12-18T23:11:35.919Z,-4.40
2022-12-18T23:13:44.086Z,-4.37
2022-12-18T23:15:51.927Z,-4.32
2022-12-18T23:18:02.988Z,-4.32
2022-12-18T23:20:11.930Z,-4.37
2022-12-18T23:22:20.159Z,-4.26
2022-12-18T23:24:28.453Z,-4.24
2022-12-18T23:26:39.474Z,-4.20
2022-12-18T23:28:47.291Z,-4.12
2022-12-18T23:30:55.708Z,-3.96
2022-12-18T23:33:06.276Z,-3.93
2022-12-18T23:35:15.629Z,-3.90
2022-12-18T23:37:57.002Z,-3.94
2022-12-18T23:39:51.921Z,-3.95
2022-12-18T23:42:00.134Z,-3.92
2022-12-18T23:44:08.290Z,-4.03
2022-12-18T23:46:20.066Z,-4.07
2022-12-18T23:48:30.635Z,-4.01
2022-12-18T23:50:38.605Z,-3.91
2022-12-18T23:52:46.405Z,-4.02
2022-12-18T23:54:56.055Z,-3.87
2022-12-18T23:57:04.465Z,-4.00
2022-12-18T23:59:12.815Z,-4.02
